Aeroporto :
LOGIN :

Iscrizione | Disclaimer

   EN    FR    IT 

 










Sommario :    VFR   VFR Marginale   IFR   IFR Intensivo   IFR Molto Intensivo
Visibilità : 
Base nubi : 
>= 8 km
>= 3000ft
5 / 8 km
1000 / 3000 ft
1500m / 5 km
500 / 1000 ft
800 / 1500m
200 / 500 ft
< 800m
< 200 ft
Simboli :   Temporali  Nebbia  Neve Forte  Precipitazioni Forti  Vento > 20 kt
SIGMETs :   Varie  Temporali  Ghiacco  Turbolenza  Onda orograficha  Ceneri Vulcaniche






- Altitudine del aeroporto : 218 ft


EGYD - RAF Cranwell

ULTIMO METAR :
  • 211620Z 11011KT 9999 BKN022 BKN050 04/02 Q1003 NOSIG RMK WHT WHT

METARs OBSOLETI :
  • 211550Z 11014KT 9999 BKN022 05/02 Q1003 NOSIG RMK WHT WHT
  • 211522Z 11011KT 9999 BKN022 05/02 Q1003 NOSIG RMK WHT WHT
  • 211450Z 11013KT 9999 BKN022 05/02 Q1003 NOSIG RMK WHT WHT
  • 211422Z 11014KT 9999 SCT022 BKN120 05/02 Q1003 NOSIG RMK WHT WHT
  • 211350Z 11013KT 9999 FEW018 BKN022 05/03 Q1003 NOSIG RMK WHT WHT

TAF TAF EGYD
Valido dal 21 a 15 ore il 21 a 18 ore UTC


211340Z 2115/2118 11010KT 9999 BKN018
PROB40 2115/2118 BKN014



MetMap, La meteo Aeronautica in un colpo d'occhio ! - Copyright ORBIFLY Dicembre 2007 - Disclaimer

ORBIFLY MET'MAP TEAM :

Programmazione e sviluppo : Alexandra Zaïnal
Concezione e sviluppo : Baudouin d'Aumeries
Co-Programmazione e sviluppo : Marc-Olivier Méhu
Supporto tecnico e logistico : Manuel Goepfert
Aiuto per la traduzione : Arnaldo La Scala

Contatto : metmap@orbifly.com




FONTI E CREDITI :

   NOAA